Airfield :







YOU CAN JOIN US ON...

 
LOGIN :

Register | Disclaimer

   EN    FR    IT 

 









Legend :    VFR   Marginal VFR   IFR   Intensive IFR   Very Intensive IFR
Visi :
Ceiling :
>= 8 km
>= 3000ft
5 to 8 km
1000 to 3000 ft
1500m to 5 km
500 to 1000 ft
800 to 1500m
200 to 500 ft
< 800m
< 200 ft
Symbols :   Thunderstorms  Fog  Heavy snow  Heavy precipitations  Wind > 20 kt







- Airport Elevation : 228 ft


KFSO - Franklin County State

CURRENT METAR :
  • 171256Z AUTO 19005KT 10SM SCT026 SCT037 OVC048 23/23 A2988 RMK AO2 T02320225

EXPIRED METARs :
  • 171236Z AUTO 19005KT 10SM SCT004 BKN028 OVC048 23/22 A2987 RMK AO2 T02300223
  • 171216Z AUTO 18004KT 7SM DZ SCT004 BKN025 OVC040 23/22 A2987 RMK AO2 T02300221
  • 171155Z AUTO 18003KT 5SM -RA SCT018 BKN028 OVC044 23/23 A2987 RMK AO2 T02310225 10267 20231
  • 171136Z AUTO 00000KT 5SM -RA SCT024 BKN029 OVC049 24/23 A2987 RMK AO2 T02350226
  • 171115Z AUTO 20004KT 5SM -RA OVC024 24/23 A2987 RMK AO2 T02350225
  • 171056Z AUTO 20004KT 7SM -RA BKN024 OVC029 24/23 A2986 RMK AO2 T02350225
  • 171035Z AUTO 19003KT 10SM BKN028 BKN044 OVC075 24/22 A2986 RMK AO2 T02350223
  • 171016Z AUTO 19003KT 10SM -DZ BKN028 BKN034 OVC085 24/22 A2985 RMK AO2 T02380222

TAF N/A
KZBW FIR / North America



MET'MAP, your aeronautical weather chart ! - Copyright ORBIFLY December 2007 - Disclaimer

ORBIFLY MET'MAP TEAM :

Programming & Development : Alexandra Zaïnal
Concept & Development : Baudouin d'Aumeries
Co-Development & Prog : Marc-Olivier Méhu
Technical & hardware support : Manuel Goepfert

Contact : metmap@orbifly.com




SOURCES & CREDITS :

   NOAA